Detall de PIREP

Printer-friendly versionPDF version

[2017/04/09 05:26:00]
Flight IATA:CT2110
Pilot Number:041
Company ICAO:CAT
Aircraft Type:A320/E
PAX:93
Departing Airport: LEVC
Destination Airport: LEST
Alternate Airport:LEMD
Online: VATSIM
Route:CENTA A33 PRADO UN733 FORNO
Flight Level:FL330
No Slew and time accel
No pause
Crash detect
Detect pilot in Cockpit between each 30 and 45 minutes
05:26 Zero fuel Weight: 136750 Lbs, Fuel Weight: 42169 Lbs
05:26 VATSIM:LEVC 090500Z VRB02KT CAVOK 07/05 Q1023 NOSIG
05:26 VATSIM:LEST 090500Z 00000KT CAVOK 06/04 Q1018 NOSIG
05:26 VOICE CATALONIAN
05:35 Parking Brakes off
05:39 Take-off
05:39 Take off Weight: 177960 Lbs
05:39 Wind: 073º @ 009 Knots Heading: 297º
05:39 POS N39º 29´ 52´´ W000º 30´ 17´´
05:39 Flaps:3 at 183 Knots
05:39 Flaps:2 at 181 Knots
05:40 Flaps:1 at 195 Knots
05:40 Flaps:0 at 222 Knots
05:40 Gear Up: 248 Knots
05:54 Wind:311º@025 Knots Heading: 299º Ground Speed: 400 Knots Altitude 26414 ft
06:00 TOC
06:00 Fuel Weight: 35984 Lb
06:09 Wind:270º@034 Knots Heading: 294º Ground Speed: 419 Knots Altitude 32995 ft
06:24 Wind:323º@043 Knots Heading: 306º Ground Speed: 406 Knots Altitude 33051 ft
06:28 Flaps:4 at 283 Knots
06:28 Flaps:5 at 283 Knots
06:28 TOD
06:28 Fuel Weight: 32992 Lb
06:29 Flaps:4 at 261 Knots
06:29 Flaps:0 at 261 Knots
06:39 Wind:269º@030 Knots Heading: 274º Ground Speed: 261 Knots Altitude 11099 ft
06:46 Flaps:1 at 233 Knots
06:46 Flaps:2 at 213 Knots
06:46 Flaps:1 at 213 Knots
06:46 Flaps:3 at 213 Knots
06:50 Flaps:4 at 161 Knots
06:51 Gear Down: 160 Knots
06:51 Flaps:5 at 161 Knots
06:54 Wind:349º@009 Knots Heading: 345º Ground Speed: 153 Knots Altitude 1525 ft
06:54 TouchDown:Rate -141 ft/min Speed: 142 Knots
06:54 VATSIM:LEST 090630Z 00000KT CAVOK 06/04 Q1019 NOSIG
06:54 Land
06:54Wind:349º@009 Knots
06:54 Heading: 347º
06:54 Flight Duration: 01:15
06:54 Landing Weight: 167340 Lbs
06:54 POS N42º 53´ 45´´ W008º 24´ 54´´
06:56 Parking brakes on
06:56 Block to Block Duration: 01:21
06:56 Final Fuel: 30423 Lbls
06:56 Spent Fuel: 11746 Lbls
06:56 Flight Length: 427 NM
06:56 TOD Land Length: 109 NM

Exportar CSV

Powered by Drupal - Modified by Danger4k